メインページ
METAR-TAF:

METAR-TAF

空港 :

ロンドン・ヒースロー空港, イングランド

緯度: 51-29N, 経度: 000-27W, 海抜: 24m

現時点の気象観測

当レポートは15分前の15:20(UTC)に作成
西の風 16kt
気温 22°C
湿度 57%
気圧 1011 hPa
視程10km以上
高度3500ftの雲は散在している
高度4900ftの曇り

METAR: EGLL 251520Z AUTO 27016KT 9999 SCT035 OVC049 22/13 Q1011 NOSIG

時間: 16:35 (15:35 UTC)

予報

当レポートは4時間41分前の10:54(UTC)に作成
予報は25日の 12時(UTC)から 26日の 18時(UTC)まで有効
西/南西の風 12kt
視程10km以上
高度3000ftの千切れ雲あり
25日の 12時(UTC)から 25日の 18時(UTC)まで一時的に
西の風 15kt、最大25ktの突風を伴う
確率 30% :
25日の 12時(UTC)から 25日の 18時(UTC)まで一時的に
視程: 8000m
弱いにわか雨
26日の 00時(UTC)から 26日の 03時(UTC)まで徐々に
北/北東の風 3kt

TAF: EGLL 251054Z 2512/2618 25012KT 9999 BKN030 TEMPO 2512/2518 27015G25KT PROB30 TEMPO 2512/2518 8000 -SHRA BECMG 2600/2603 03003KT

4,000以上の空港の気象観測と天気予報(METAR報とTAF報)

利用可能な観測所は地図上に黄色い丸と赤い丸で示す。

丸の上にカーソルを重ねると観測所名を参照できる。

次にクリックすると気象観測と天気予報を参照できる。

マップの切り替え:黒色「×」印の緑ボタンをクリックして拡大、「-」印の緑ボタンをクリックして縮小、緑色の三角印をクリックして隣りの地図に切り替え


METAR-TAF: